sensor_id;sensor_type;location;lat;lon;timestamp;temperature;humidity
11615;DHT22;5863;52.832;4.758;2023-03-04T00:01:24;7.30;99.90
11615;DHT22;5863;52.832;4.758;2023-03-04T00:03:50;7.30;99.90
11615;DHT22;5863;52.832;4.758;2023-03-04T00:06:18;7.30;99.90
11615;DHT22;5863;52.832;4.758;2023-03-04T00:08:45;7.30;99.90
11615;DHT22;5863;52.832;4.758;2023-03-04T00:11:11;7.20;99.90
11615;DHT22;5863;52.832;4.758;2023-03-04T00:13:38;7.20;99.90
11615;DHT22;5863;52.832;4.758;2023-03-04T00:16:05;7.20;99.90
11615;DHT22;5863;52.832;4.758;2023-03-04T00:18:33;7.20;99.90
11615;DHT22;5863;52.832;4.758;2023-03-04T00:21:00;7.20;99.90
11615;DHT22;5863;52.832;4.758;2023-03-04T00:23:27;7.20;99.90
11615;DHT22;5863;52.832;4.758;2023-03-04T00:25:54;7.20;99.90
11615;DHT22;5863;52.832;4.758;2023-03-04T00:28:21;7.20;99.90
11615;DHT22;5863;52.832;4.758;2023-03-04T00:30:48;7.20;99.90
11615;DHT22;5863;52.832;4.758;2023-03-04T00:33:16;7.30;99.90
11615;DHT22;5863;52.832;4.758;2023-03-04T00:35:44;7.40;99.90
11615;DHT22;5863;52.832;4.758;2023-03-04T00:38:12;7.40;99.90
11615;DHT22;5863;52.832;4.758;2023-03-04T00:40:39;7.20;99.90
11615;DHT22;5863;52.832;4.758;2023-03-04T00:43:06;7.30;99.90
11615;DHT22;5863;52.832;4.758;2023-03-04T00:45:32;7.30;99.90
11615;DHT22;5863;52.832;4.758;2023-03-04T00:47:59;7.30;99.90
11615;DHT22;5863;52.832;4.758;2023-03-04T00:50:26;7.20;99.90
11615;DHT22;5863;52.832;4.758;2023-03-04T00:52:54;7.20;99.90
11615;DHT22;5863;52.832;4.758;2023-03-04T00:55:21;7.30;99.90
11615;DHT22;5863;52.832;4.758;2023-03-04T00:57:47;7.20;99.90
11615;DHT22;5863;52.832;4.758;2023-03-04T01:00:15;7.40;99.90
11615;DHT22;5863;52.832;4.758;2023-03-04T01:02:42;7.30;99.90
11615;DHT22;5863;52.832;4.758;2023-03-04T01:05:09;7.30;99.90
11615;DHT22;5863;52.832;4.758;2023-03-04T01:07:36;7.20;99.90
11615;DHT22;5863;52.832;4.758;2023-03-04T01:10:06;7.30;99.90
11615;DHT22;5863;52.832;4.758;2023-03-04T01:12:34;7.20;99.90
11615;DHT22;5863;52.832;4.758;2023-03-04T01:15:01;7.40;99.90
11615;DHT22;5863;52.832;4.758;2023-03-04T01:17:28;7.40;99.90
11615;DHT22;5863;52.832;4.758;2023-03-04T01:19:54;7.40;99.90
11615;DHT22;5863;52.832;4.758;2023-03-04T01:22:21;7.30;99.90
11615;DHT22;5863;52.832;4.758;2023-03-04T01:24:48;7.20;99.90
11615;DHT22;5863;52.832;4.758;2023-03-04T01:27:16;7.30;99.90
11615;DHT22;5863;52.832;4.758;2023-03-04T01:29:43;7.30;99.90
11615;DHT22;5863;52.832;4.758;2023-03-04T01:32:10;7.30;99.90
11615;DHT22;5863;52.832;4.758;2023-03-04T01:34:37;7.30;99.90
11615;DHT22;5863;52.832;4.758;2023-03-04T01:37:05;7.40;99.90
11615;DHT22;5863;52.832;4.758;2023-03-04T01:39:32;7.30;99.90
11615;DHT22;5863;52.832;4.758;2023-03-04T01:41:59;7.30;99.90
11615;DHT22;5863;52.832;4.758;2023-03-04T01:44:27;7.30;99.90
11615;DHT22;5863;52.832;4.758;2023-03-04T01:46:54;7.30;99.90
11615;DHT22;5863;52.832;4.758;2023-03-04T01:49:22;7.30;99.90
11615;DHT22;5863;52.832;4.758;2023-03-04T01:51:51;7.30;99.90
11615;DHT22;5863;52.832;4.758;2023-03-04T01:54:19;7.30;99.90
11615;DHT22;5863;52.832;4.758;2023-03-04T01:56:48;7.30;99.90
11615;DHT22;5863;52.832;4.758;2023-03-04T01:59:17;7.30;99.90
11615;DHT22;5863;52.832;4.758;2023-03-04T02:01:51;7.30;99.90
11615;DHT22;5863;52.832;4.758;2023-03-04T02:04:20;7.30;99.90
11615;DHT22;5863;52.832;4.758;2023-03-04T02:06:48;7.30;99.90
11615;DHT22;5863;52.832;4.758;2023-03-04T02:09:16;7.30;99.90
11615;DHT22;5863;52.832;4.758;2023-03-04T02:11:46;7.20;99.90
11615;DHT22;5863;52.832;4.758;2023-03-04T02:14:14;7.20;99.90
11615;DHT22;5863;52.832;4.758;2023-03-04T02:16:42;7.30;99.90
11615;DHT22;5863;52.832;4.758;2023-03-04T02:19:15;7.30;99.90
11615;DHT22;5863;52.832;4.758;2023-03-04T02:21:44;7.20;99.90
11615;DHT22;5863;52.832;4.758;2023-03-04T02:24:14;7.20;99.90
11615;DHT22;5863;52.832;4.758;2023-03-04T02:26:44;7.20;99.90
11615;DHT22;5863;52.832;4.758;2023-03-04T02:29:13;7.10;99.90
11615;DHT22;5863;52.832;4.758;2023-03-04T02:31:41;7.20;99.90
11615;DHT22;5863;52.832;4.758;2023-03-04T02:34:12;7.30;99.90
11615;DHT22;5863;52.832;4.758;2023-03-04T02:36:46;7.40;99.90
11615;DHT22;5863;52.832;4.758;2023-03-04T02:39:24;7.30;99.90
11615;DHT22;5863;52.832;4.758;2023-03-04T02:41:55;7.30;99.90
11615;DHT22;5863;52.832;4.758;2023-03-04T02:44:24;7.30;99.90
11615;DHT22;5863;52.832;4.758;2023-03-04T02:46:51;7.30;99.90
11615;DHT22;5863;52.832;4.758;2023-03-04T02:49:26;7.30;99.90
11615;DHT22;5863;52.832;4.758;2023-03-04T02:51:59;7.30;99.90
11615;DHT22;5863;52.832;4.758;2023-03-04T02:54:26;7.30;99.90
11615;DHT22;5863;52.832;4.758;2023-03-04T02:56:59;7.30;99.90
11615;DHT22;5863;52.832;4.758;2023-03-04T02:59:27;7.20;99.90
11615;DHT22;5863;52.832;4.758;2023-03-04T03:01:56;7.20;99.90
11615;DHT22;5863;52.832;4.758;2023-03-04T03:04:23;7.20;99.90
11615;DHT22;5863;52.832;4.758;2023-03-04T03:06:50;7.20;99.90
11615;DHT22;5863;52.832;4.758;2023-03-04T03:09:17;7.20;99.90
11615;DHT22;5863;52.832;4.758;2023-03-04T03:11:45;7.30;99.90
11615;DHT22;5863;52.832;4.758;2023-03-04T03:14:14;7.20;99.90
11615;DHT22;5863;52.832;4.758;2023-03-04T03:16:40;7.20;99.90
11615;DHT22;5863;52.832;4.758;2023-03-04T03:19:07;7.20;99.90
11615;DHT22;5863;52.832;4.758;2023-03-04T03:21:34;7.10;99.90
11615;DHT22;5863;52.832;4.758;2023-03-04T03:24:01;7.10;99.90
11615;DHT22;5863;52.832;4.758;2023-03-04T03:26:27;7.30;99.90
11615;DHT22;5863;52.832;4.758;2023-03-04T03:28:55;7.20;99.90
11615;DHT22;5863;52.832;4.758;2023-03-04T03:31:23;7.20;99.90
11615;DHT22;5863;52.832;4.758;2023-03-04T03:33:50;7.30;99.90
11615;DHT22;5863;52.832;4.758;2023-03-04T03:36:16;7.30;99.90
11615;DHT22;5863;52.832;4.758;2023-03-04T03:38:43;7.30;99.90
11615;DHT22;5863;52.832;4.758;2023-03-04T03:41:10;7.30;99.90
11615;DHT22;5863;52.832;4.758;2023-03-04T03:43:36;7.20;99.90
11615;DHT22;5863;52.832;4.758;2023-03-04T03:46:03;7.30;99.90
11615;DHT22;5863;52.832;4.758;2023-03-04T03:48:31;7.20;99.90
11615;DHT22;5863;52.832;4.758;2023-03-04T03:51:00;7.20;99.90
11615;DHT22;5863;52.832;4.758;2023-03-04T03:53:27;7.20;99.90
11615;DHT22;5863;52.832;4.758;2023-03-04T03:55:54;7.20;99.90
11615;DHT22;5863;52.832;4.758;2023-03-04T03:58:21;7.20;99.90
11615;DHT22;5863;52.832;4.758;2023-03-04T04:00:47;7.10;99.90
11615;DHT22;5863;52.832;4.758;2023-03-04T04:03:14;7.20;99.90
11615;DHT22;5863;52.832;4.758;2023-03-04T04:05:42;7.20;99.90
11615;DHT22;5863;52.832;4.758;2023-03-04T04:08:11;7.30;99.90
11615;DHT22;5863;52.832;4.758;2023-03-04T04:10:38;7.30;99.90
11615;DHT22;5863;52.832;4.758;2023-03-04T04:13:05;7.30;99.90
11615;DHT22;5863;52.832;4.758;2023-03-04T04:15:32;7.20;99.90
11615;DHT22;5863;52.832;4.758;2023-03-04T04:17:59;7.30;99.90
11615;DHT22;5863;52.832;4.758;2023-03-04T04:20:26;7.30;99.90
11615;DHT22;5863;52.832;4.758;2023-03-04T04:22:57;7.30;99.90
11615;DHT22;5863;52.832;4.758;2023-03-04T04:25:23;7.30;99.90
11615;DHT22;5863;52.832;4.758;2023-03-04T04:27:51;7.30;99.90
11615;DHT22;5863;52.832;4.758;2023-03-04T04:30:18;7.30;99.90
11615;DHT22;5863;52.832;4.758;2023-03-04T04:32:47;7.30;99.90
11615;DHT22;5863;52.832;4.758;2023-03-04T04:35:13;7.30;99.90
11615;DHT22;5863;52.832;4.758;2023-03-04T04:37:40;7.20;99.90
11615;DHT22;5863;52.832;4.758;2023-03-04T04:40:09;7.30;99.90
11615;DHT22;5863;52.832;4.758;2023-03-04T04:42:36;7.30;99.90
11615;DHT22;5863;52.832;4.758;2023-03-04T04:45:04;7.30;99.90
11615;DHT22;5863;52.832;4.758;2023-03-04T04:47:31;7.30;99.90
11615;DHT22;5863;52.832;4.758;2023-03-04T04:49:59;7.30;99.90
11615;DHT22;5863;52.832;4.758;2023-03-04T04:52:26;7.30;99.90
11615;DHT22;5863;52.832;4.758;2023-03-04T04:54:52;7.30;99.90
11615;DHT22;5863;52.832;4.758;2023-03-04T04:57:21;7.40;99.90
11615;DHT22;5863;52.832;4.758;2023-03-04T04:59:47;7.40;99.90
11615;DHT22;5863;52.832;4.758;2023-03-04T05:02:14;7.30;99.90
11615;DHT22;5863;52.832;4.758;2023-03-04T05:04:41;7.30;99.90
11615;DHT22;5863;52.832;4.758;2023-03-04T05:07:10;7.30;99.90
11615;DHT22;5863;52.832;4.758;2023-03-04T05:09:36;7.30;99.90
11615;DHT22;5863;52.832;4.758;2023-03-04T05:12:03;7.30;99.90
11615;DHT22;5863;52.832;4.758;2023-03-04T05:14:31;7.30;99.90
11615;DHT22;5863;52.832;4.758;2023-03-04T05:16:58;7.20;99.90
11615;DHT22;5863;52.832;4.758;2023-03-04T05:19:25;7.20;99.90
11615;DHT22;5863;52.832;4.758;2023-03-04T05:21:51;7.20;99.90
11615;DHT22;5863;52.832;4.758;2023-03-04T05:24:18;7.20;99.90
11615;DHT22;5863;52.832;4.758;2023-03-04T05:26:45;7.10;99.90
11615;DHT22;5863;52.832;4.758;2023-03-04T05:29:12;7.10;99.90
11615;DHT22;5863;52.832;4.758;2023-03-04T05:31:55;7.10;99.90
11615;DHT22;5863;52.832;4.758;2023-03-04T05:34:22;7.10;99.90
11615;DHT22;5863;52.832;4.758;2023-03-04T05:36:49;7.10;99.90
11615;DHT22;5863;52.832;4.758;2023-03-04T05:39:16;7.10;99.90
11615;DHT22;5863;52.832;4.758;2023-03-04T05:41:42;7.20;99.90
11615;DHT22;5863;52.832;4.758;2023-03-04T05:44:13;7.10;99.90
11615;DHT22;5863;52.832;4.758;2023-03-04T05:46:40;7.10;99.90
11615;DHT22;5863;52.832;4.758;2023-03-04T05:49:08;7.10;99.90
11615;DHT22;5863;52.832;4.758;2023-03-04T05:51:35;7.10;99.90
11615;DHT22;5863;52.832;4.758;2023-03-04T05:54:03;7.10;99.90
11615;DHT22;5863;52.832;4.758;2023-03-04T05:56:30;7.10;99.90
11615;DHT22;5863;52.832;4.758;2023-03-04T05:58:58;7.20;99.90
11615;DHT22;5863;52.832;4.758;2023-03-04T06:01:25;7.10;99.90
11615;DHT22;5863;52.832;4.758;2023-03-04T06:03:52;7.20;99.90
11615;DHT22;5863;52.832;4.758;2023-03-04T06:06:20;7.20;99.90
11615;DHT22;5863;52.832;4.758;2023-03-04T06:08:46;7.30;99.90
11615;DHT22;5863;52.832;4.758;2023-03-04T06:11:13;7.30;99.90
11615;DHT22;5863;52.832;4.758;2023-03-04T06:13:40;7.30;99.90
11615;DHT22;5863;52.832;4.758;2023-03-04T06:16:07;7.30;99.90
11615;DHT22;5863;52.832;4.758;2023-03-04T06:18:34;7.20;99.90
11615;DHT22;5863;52.832;4.758;2023-03-04T06:21:01;7.20;99.90
11615;DHT22;5863;52.832;4.758;2023-03-04T06:23:30;7.20;99.90
11615;DHT22;5863;52.832;4.758;2023-03-04T06:25:59;7.30;99.90
11615;DHT22;5863;52.832;4.758;2023-03-04T06:28:26;7.20;99.90
11615;DHT22;5863;52.832;4.758;2023-03-04T06:30:53;7.20;99.90
11615;DHT22;5863;52.832;4.758;2023-03-04T06:33:20;7.20;99.90
11615;DHT22;5863;52.832;4.758;2023-03-04T06:35:47;7.10;99.90
11615;DHT22;5863;52.832;4.758;2023-03-04T06:38:14;7.10;99.90
11615;DHT22;5863;52.832;4.758;2023-03-04T06:40:42;7.00;99.90
11615;DHT22;5863;52.832;4.758;2023-03-04T06:43:17;7.00;99.90
11615;DHT22;5863;52.832;4.758;2023-03-04T06:45:49;7.00;99.90
11615;DHT22;5863;52.832;4.758;2023-03-04T06:48:16;7.00;99.90
11615;DHT22;5863;52.832;4.758;2023-03-04T06:50:44;7.00;99.90
11615;DHT22;5863;52.832;4.758;2023-03-04T06:53:11;7.00;99.90
11615;DHT22;5863;52.832;4.758;2023-03-04T06:55:45;7.10;99.90
11615;DHT22;5863;52.832;4.758;2023-03-04T06:58:12;7.10;99.90
11615;DHT22;5863;52.832;4.758;2023-03-04T07:00:40;7.20;99.90
11615;DHT22;5863;52.832;4.758;2023-03-04T07:03:07;7.20;99.90
11615;DHT22;5863;52.832;4.758;2023-03-04T07:05:34;7.30;99.90
11615;DHT22;5863;52.832;4.758;2023-03-04T07:08:01;7.30;99.90
11615;DHT22;5863;52.832;4.758;2023-03-04T07:10:28;7.30;99.90
11615;DHT22;5863;52.832;4.758;2023-03-04T07:12:56;7.30;99.90
11615;DHT22;5863;52.832;4.758;2023-03-04T07:15:22;7.40;99.90
11615;DHT22;5863;52.832;4.758;2023-03-04T07:17:49;7.40;99.90
11615;DHT22;5863;52.832;4.758;2023-03-04T07:20:18;7.40;99.90
11615;DHT22;5863;52.832;4.758;2023-03-04T07:22:45;7.50;99.90
11615;DHT22;5863;52.832;4.758;2023-03-04T07:25:12;7.40;99.90
11615;DHT22;5863;52.832;4.758;2023-03-04T07:27:40;7.50;99.90
11615;DHT22;5863;52.832;4.758;2023-03-04T07:30:10;7.50;99.90
11615;DHT22;5863;52.832;4.758;2023-03-04T07:32:43;7.60;99.90
11615;DHT22;5863;52.832;4.758;2023-03-04T07:35:10;7.70;99.90
11615;DHT22;5863;52.832;4.758;2023-03-04T07:37:36;7.80;99.90
11615;DHT22;5863;52.832;4.758;2023-03-04T07:40:07;7.90;99.90
11615;DHT22;5863;52.832;4.758;2023-03-04T07:42:34;8.00;99.90
11615;DHT22;5863;52.832;4.758;2023-03-04T07:45:01;8.00;99.90
11615;DHT22;5863;52.832;4.758;2023-03-04T07:47:29;8.00;99.90
11615;DHT22;5863;52.832;4.758;2023-03-04T07:49:57;7.90;99.90
11615;DHT22;5863;52.832;4.758;2023-03-04T07:52:24;7.90;99.90
11615;DHT22;5863;52.832;4.758;2023-03-04T07:54:50;7.90;99.90
11615;DHT22;5863;52.832;4.758;2023-03-04T07:57:17;8.10;99.90
11615;DHT22;5863;52.832;4.758;2023-03-04T07:59:44;8.20;99.90
11615;DHT22;5863;52.832;4.758;2023-03-04T08:02:10;8.30;99.90
11615;DHT22;5863;52.832;4.758;2023-03-04T08:04:39;8.40;99.90
11615;DHT22;5863;52.832;4.758;2023-03-04T08:07:07;8.50;99.90
11615;DHT22;5863;52.832;4.758;2023-03-04T08:09:34;8.50;99.90
11615;DHT22;5863;52.832;4.758;2023-03-04T08:12:01;8.60;99.90
11615;DHT22;5863;52.832;4.758;2023-03-04T08:14:27;8.60;99.90
11615;DHT22;5863;52.832;4.758;2023-03-04T08:16:55;8.60;99.90
11615;DHT22;5863;52.832;4.758;2023-03-04T08:19:23;8.50;99.90
11615;DHT22;5863;52.832;4.758;2023-03-04T08:21:51;8.50;99.90
11615;DHT22;5863;52.832;4.758;2023-03-04T08:24:18;8.50;99.90
11615;DHT22;5863;52.832;4.758;2023-03-04T08:26:55;8.50;99.90
11615;DHT22;5863;52.832;4.758;2023-03-04T08:29:27;8.50;99.90
11615;DHT22;5863;52.832;4.758;2023-03-04T08:31:54;8.50;99.90
11615;DHT22;5863;52.832;4.758;2023-03-04T08:34:25;8.40;99.90
11615;DHT22;5863;52.832;4.758;2023-03-04T08:39:29;8.70;99.90
11615;DHT22;5863;52.832;4.758;2023-03-04T08:41:57;8.70;99.90
11615;DHT22;5863;52.832;4.758;2023-03-04T08:44:24;8.70;99.90
11615;DHT22;5863;52.832;4.758;2023-03-04T08:46:53;8.70;99.90
11615;DHT22;5863;52.832;4.758;2023-03-04T08:49:19;8.70;99.90
11615;DHT22;5863;52.832;4.758;2023-03-04T08:51:46;8.70;99.90
11615;DHT22;5863;52.832;4.758;2023-03-04T08:54:14;8.80;99.90
11615;DHT22;5863;52.832;4.758;2023-03-04T08:56:41;8.80;99.90
11615;DHT22;5863;52.832;4.758;2023-03-04T08:59:07;8.80;99.90
11615;DHT22;5863;52.832;4.758;2023-03-04T09:01:34;9.00;99.90
11615;DHT22;5863;52.832;4.758;2023-03-04T09:04:01;9.00;99.90
11615;DHT22;5863;52.832;4.758;2023-03-04T09:06:32;9.10;99.90
11615;DHT22;5863;52.832;4.758;2023-03-04T09:08:59;9.20;99.90
11615;DHT22;5863;52.832;4.758;2023-03-04T09:11:27;9.40;99.90
11615;DHT22;5863;52.832;4.758;2023-03-04T09:13:53;9.50;99.90
11615;DHT22;5863;52.832;4.758;2023-03-04T09:16:20;9.60;99.90
11615;DHT22;5863;52.832;4.758;2023-03-04T09:18:47;9.40;99.90
11615;DHT22;5863;52.832;4.758;2023-03-04T09:21:14;9.40;99.90
11615;DHT22;5863;52.832;4.758;2023-03-04T09:23:41;9.30;99.90
11615;DHT22;5863;52.832;4.758;2023-03-04T09:26:16;9.30;99.90
11615;DHT22;5863;52.832;4.758;2023-03-04T09:28:44;9.20;99.90
11615;DHT22;5863;52.832;4.758;2023-03-04T09:31:11;9.20;99.90
11615;DHT22;5863;52.832;4.758;2023-03-04T09:33:38;9.00;99.90
11615;DHT22;5863;52.832;4.758;2023-03-04T09:36:07;8.90;99.90
11615;DHT22;5863;52.832;4.758;2023-03-04T09:38:34;9.10;99.90
11615;DHT22;5863;52.832;4.758;2023-03-04T09:41:06;9.30;99.90
11615;DHT22;5863;52.832;4.758;2023-03-04T09:43:34;9.50;99.90
11615;DHT22;5863;52.832;4.758;2023-03-04T09:46:06;9.60;99.90
11615;DHT22;5863;52.832;4.758;2023-03-04T09:48:39;9.40;99.90
11615;DHT22;5863;52.832;4.758;2023-03-04T09:51:18;9.20;99.90
11615;DHT22;5863;52.832;4.758;2023-03-04T09:53:54;8.90;99.90
11615;DHT22;5863;52.832;4.758;2023-03-04T09:56:24;8.90;99.90
11615;DHT22;5863;52.832;4.758;2023-03-04T09:58:56;8.80;99.90
11615;DHT22;5863;52.832;4.758;2023-03-04T10:01:35;8.70;99.90
11615;DHT22;5863;52.832;4.758;2023-03-04T10:04:07;8.80;99.90
11615;DHT22;5863;52.832;4.758;2023-03-04T10:06:39;8.80;99.90
11615;DHT22;5863;52.832;4.758;2023-03-04T10:09:11;8.90;99.90
11615;DHT22;5863;52.832;4.758;2023-03-04T10:11:43;9.00;99.90
11615;DHT22;5863;52.832;4.758;2023-03-04T10:14:30;9.10;99.90
11615;DHT22;5863;52.832;4.758;2023-03-04T10:17:04;9.20;99.90
11615;DHT22;5863;52.832;4.758;2023-03-04T10:19:44;9.20;99.90
11615;DHT22;5863;52.832;4.758;2023-03-04T10:22:19;9.00;99.90
11615;DHT22;5863;52.832;4.758;2023-03-04T10:24:47;8.90;99.90
11615;DHT22;5863;52.832;4.758;2023-03-04T10:27:17;8.90;99.90
11615;DHT22;5863;52.832;4.758;2023-03-04T10:29:45;9.00;99.90
11615;DHT22;5863;52.832;4.758;2023-03-04T10:32:15;9.00;99.90
11615;DHT22;5863;52.832;4.758;2023-03-04T10:34:43;9.10;99.90
11615;DHT22;5863;52.832;4.758;2023-03-04T10:37:09;9.00;99.90
11615;DHT22;5863;52.832;4.758;2023-03-04T10:39:38;9.00;99.90
11615;DHT22;5863;52.832;4.758;2023-03-04T10:42:25;9.00;99.90
11615;DHT22;5863;52.832;4.758;2023-03-04T10:44:53;9.00;99.90
11615;DHT22;5863;52.832;4.758;2023-03-04T10:47:24;9.00;99.90
11615;DHT22;5863;52.832;4.758;2023-03-04T10:49:56;9.20;99.90
11615;DHT22;5863;52.832;4.758;2023-03-04T10:52:30;9.40;99.90
11615;DHT22;5863;52.832;4.758;2023-03-04T10:54:58;9.40;99.90
11615;DHT22;5863;52.832;4.758;2023-03-04T10:57:32;9.40;99.90
11615;DHT22;5863;52.832;4.758;2023-03-04T10:59:59;9.50;99.90
11615;DHT22;5863;52.832;4.758;2023-03-04T11:02:29;9.50;99.90
11615;DHT22;5863;52.832;4.758;2023-03-04T11:05:05;9.50;99.90
11615;DHT22;5863;52.832;4.758;2023-03-04T11:07:38;9.60;99.90
11615;DHT22;5863;52.832;4.758;2023-03-04T11:10:09;9.40;99.90
11615;DHT22;5863;52.832;4.758;2023-03-04T11:12:37;9.40;99.90
11615;DHT22;5863;52.832;4.758;2023-03-04T11:15:17;9.30;99.90
11615;DHT22;5863;52.832;4.758;2023-03-04T11:17:48;9.30;99.90
11615;DHT22;5863;52.832;4.758;2023-03-04T11:20:21;9.30;99.90
11615;DHT22;5863;52.832;4.758;2023-03-04T11:22:51;9.40;99.90
11615;DHT22;5863;52.832;4.758;2023-03-04T11:25:24;9.40;99.90
11615;DHT22;5863;52.832;4.758;2023-03-04T11:27:53;9.40;99.90
11615;DHT22;5863;52.832;4.758;2023-03-04T11:30:42;9.30;99.90
11615;DHT22;5863;52.832;4.758;2023-03-04T11:33:24;9.30;99.90
11615;DHT22;5863;52.832;4.758;2023-03-04T11:35:58;9.30;99.90
11615;DHT22;5863;52.832;4.758;2023-03-04T11:38:32;9.30;99.90
11615;DHT22;5863;52.832;4.758;2023-03-04T11:41:03;9.30;99.90
11615;DHT22;5863;52.832;4.758;2023-03-04T11:43:35;9.30;99.90
11615;DHT22;5863;52.832;4.758;2023-03-04T11:46:43;9.40;99.90
11615;DHT22;5863;52.832;4.758;2023-03-04T11:52:36;9.50;99.90
11615;DHT22;5863;52.832;4.758;2023-03-04T11:55:24;9.50;99.90
11615;DHT22;5863;52.832;4.758;2023-03-04T11:57:58;9.50;99.90
11615;DHT22;5863;52.832;4.758;2023-03-04T12:00:35;9.50;99.90
11615;DHT22;5863;52.832;4.758;2023-03-04T12:03:20;9.50;99.90
11615;DHT22;5863;52.832;4.758;2023-03-04T12:05:53;9.50;99.90
11615;DHT22;5863;52.832;4.758;2023-03-04T12:08:35;9.50;99.90
11615;DHT22;5863;52.832;4.758;2023-03-04T12:11:16;9.60;99.90
11615;DHT22;5863;52.832;4.758;2023-03-04T12:13:57;9.70;99.90
11615;DHT22;5863;52.832;4.758;2023-03-04T12:16:36;9.70;99.90
11615;DHT22;5863;52.832;4.758;2023-03-04T12:19:19;9.70;99.90
11615;DHT22;5863;52.832;4.758;2023-03-04T12:22:01;9.70;99.90
11615;DHT22;5863;52.832;4.758;2023-03-04T12:25:00;9.70;99.90
11615;DHT22;5863;52.832;4.758;2023-03-04T12:27:35;9.60;99.90
11615;DHT22;5863;52.832;4.758;2023-03-04T12:30:16;9.60;99.90
11615;DHT22;5863;52.832;4.758;2023-03-04T12:32:55;9.60;99.90
11615;DHT22;5863;52.832;4.758;2023-03-04T12:35:36;9.60;99.90
11615;DHT22;5863;52.832;4.758;2023-03-04T12:38:27;9.60;99.90
11615;DHT22;5863;52.832;4.758;2023-03-04T12:41:05;9.60;99.90
11615;DHT22;5863;52.832;4.758;2023-03-04T12:43:46;9.60;99.90
11615;DHT22;5863;52.832;4.758;2023-03-04T12:46:26;9.50;99.90
11615;DHT22;5863;52.832;4.758;2023-03-04T12:49:22;9.30;99.90
11615;DHT22;5863;52.832;4.758;2023-03-04T12:51:58;9.10;99.90
11615;DHT22;5863;52.832;4.758;2023-03-04T12:54:30;9.00;99.90
11615;DHT22;5863;52.832;4.758;2023-03-04T12:57:01;9.00;99.90
11615;DHT22;5863;52.832;4.758;2023-03-04T12:59:34;9.00;99.90
11615;DHT22;5863;52.832;4.758;2023-03-04T13:02:26;9.10;99.90
11615;DHT22;5863;52.832;4.758;2023-03-04T13:05:02;9.20;99.90
11615;DHT22;5863;52.832;4.758;2023-03-04T13:07:38;9.30;99.90
11615;DHT22;5863;52.832;4.758;2023-03-04T13:10:11;9.20;99.90
11615;DHT22;5863;52.832;4.758;2023-03-04T13:12:50;9.30;99.90
11615;DHT22;5863;52.832;4.758;2023-03-04T13:15:29;9.50;99.90
11615;DHT22;5863;52.832;4.758;2023-03-04T13:17:57;9.60;99.90
11615;DHT22;5863;52.832;4.758;2023-03-04T13:20:33;9.60;99.90
11615;DHT22;5863;52.832;4.758;2023-03-04T13:23:03;9.60;99.90
11615;DHT22;5863;52.832;4.758;2023-03-04T13:25:46;9.50;99.90
11615;DHT22;5863;52.832;4.758;2023-03-04T13:28:24;9.50;99.90
11615;DHT22;5863;52.832;4.758;2023-03-04T13:31:10;9.50;99.90
11615;DHT22;5863;52.832;4.758;2023-03-04T13:33:46;9.60;99.90
11615;DHT22;5863;52.832;4.758;2023-03-04T13:39:29;9.50;99.90
11615;DHT22;5863;52.832;4.758;2023-03-04T13:41:57;9.50;99.90
11615;DHT22;5863;52.832;4.758;2023-03-04T13:47:47;9.50;99.90
11615;DHT22;5863;52.832;4.758;2023-03-04T13:56:28;9.80;99.90
11615;DHT22;5863;52.832;4.758;2023-03-04T13:59:27;9.90;99.90
11615;DHT22;5863;52.832;4.758;2023-03-04T14:01:57;9.90;99.90
11615;DHT22;5863;52.832;4.758;2023-03-04T14:04:32;9.90;99.90
11615;DHT22;5863;52.832;4.758;2023-03-04T14:07:00;9.90;99.90
11615;DHT22;5863;52.832;4.758;2023-03-04T14:09:29;10.00;99.90
11615;DHT22;5863;52.832;4.758;2023-03-04T14:11:57;10.10;99.90
11615;DHT22;5863;52.832;4.758;2023-03-04T14:14:27;10.20;99.90
11615;DHT22;5863;52.832;4.758;2023-03-04T14:16:57;10.20;99.90
11615;DHT22;5863;52.832;4.758;2023-03-04T14:19:27;10.10;99.90
11615;DHT22;5863;52.832;4.758;2023-03-04T14:21:55;9.90;99.90
11615;DHT22;5863;52.832;4.758;2023-03-04T14:24:22;9.90;99.90
11615;DHT22;5863;52.832;4.758;2023-03-04T14:27:03;9.90;99.90
11615;DHT22;5863;52.832;4.758;2023-03-04T14:29:30;10.00;99.90
11615;DHT22;5863;52.832;4.758;2023-03-04T14:31:57;10.00;99.90
11615;DHT22;5863;52.832;4.758;2023-03-04T14:34:28;10.00;99.90
11615;DHT22;5863;52.832;4.758;2023-03-04T14:36:57;10.00;99.90
11615;DHT22;5863;52.832;4.758;2023-03-04T14:39:25;9.80;99.90
11615;DHT22;5863;52.832;4.758;2023-03-04T14:41:55;9.80;99.90
11615;DHT22;5863;52.832;4.758;2023-03-04T14:44:33;9.70;99.90
11615;DHT22;5863;52.832;4.758;2023-03-04T14:47:11;9.50;99.90
11615;DHT22;5863;52.832;4.758;2023-03-04T14:49:45;9.40;99.90
11615;DHT22;5863;52.832;4.758;2023-03-04T14:52:33;9.40;99.90
11615;DHT22;5863;52.832;4.758;2023-03-04T14:55:08;9.40;99.90
11615;DHT22;5863;52.832;4.758;2023-03-04T14:57:42;9.30;99.90
11615;DHT22;5863;52.832;4.758;2023-03-04T15:00:14;9.30;99.90
11615;DHT22;5863;52.832;4.758;2023-03-04T15:02:41;9.30;99.90
11615;DHT22;5863;52.832;4.758;2023-03-04T15:05:15;9.30;99.90
11615;DHT22;5863;52.832;4.758;2023-03-04T15:07:49;9.30;99.90
11615;DHT22;5863;52.832;4.758;2023-03-04T15:10:21;9.30;99.90
11615;DHT22;5863;52.832;4.758;2023-03-04T15:12:50;9.20;99.90
11615;DHT22;5863;52.832;4.758;2023-03-04T15:15:36;9.10;99.90
11615;DHT22;5863;52.832;4.758;2023-03-04T15:18:19;9.10;99.90
11615;DHT22;5863;52.832;4.758;2023-03-04T15:20:58;9.00;99.90
11615;DHT22;5863;52.832;4.758;2023-03-04T15:23:25;9.00;99.90
11615;DHT22;5863;52.832;4.758;2023-03-04T15:25:54;9.00;99.90
11615;DHT22;5863;52.832;4.758;2023-03-04T15:28:23;9.00;99.90
11615;DHT22;5863;52.832;4.758;2023-03-04T15:30:50;8.80;99.90
11615;DHT22;5863;52.832;4.758;2023-03-04T15:33:17;8.80;99.90
11615;DHT22;5863;52.832;4.758;2023-03-04T15:35:50;8.80;99.90
11615;DHT22;5863;52.832;4.758;2023-03-04T15:38:19;8.80;99.90
11615;DHT22;5863;52.832;4.758;2023-03-04T15:40:46;8.80;99.90
11615;DHT22;5863;52.832;4.758;2023-03-04T15:43:14;8.80;99.90
11615;DHT22;5863;52.832;4.758;2023-03-04T15:45:42;8.80;99.90
11615;DHT22;5863;52.832;4.758;2023-03-04T15:48:10;8.80;99.90
11615;DHT22;5863;52.832;4.758;2023-03-04T15:50:40;8.70;99.90
11615;DHT22;5863;52.832;4.758;2023-03-04T15:53:11;8.80;99.90
11615;DHT22;5863;52.832;4.758;2023-03-04T15:55:42;8.90;99.90
11615;DHT22;5863;52.832;4.758;2023-03-04T15:58:10;8.90;99.90
11615;DHT22;5863;52.832;4.758;2023-03-04T16:00:38;8.80;99.90
11615;DHT22;5863;52.832;4.758;2023-03-04T16:03:04;8.80;99.90
11615;DHT22;5863;52.832;4.758;2023-03-04T16:05:35;8.80;99.90
11615;DHT22;5863;52.832;4.758;2023-03-04T16:08:02;8.70;99.90
11615;DHT22;5863;52.832;4.758;2023-03-04T16:10:29;8.60;99.90
11615;DHT22;5863;52.832;4.758;2023-03-04T16:12:57;8.50;99.90
11615;DHT22;5863;52.832;4.758;2023-03-04T16:15:26;8.50;99.90
11615;DHT22;5863;52.832;4.758;2023-03-04T16:17:59;8.40;99.90
11615;DHT22;5863;52.832;4.758;2023-03-04T16:20:27;8.30;99.90
11615;DHT22;5863;52.832;4.758;2023-03-04T16:22:56;8.40;99.90
11615;DHT22;5863;52.832;4.758;2023-03-04T16:25:25;8.40;99.90
11615;DHT22;5863;52.832;4.758;2023-03-04T16:27:53;8.40;99.90
11615;DHT22;5863;52.832;4.758;2023-03-04T16:30:23;8.30;99.90
11615;DHT22;5863;52.832;4.758;2023-03-04T16:32:51;8.30;99.90
11615;DHT22;5863;52.832;4.758;2023-03-04T16:35:19;8.30;99.90
11615;DHT22;5863;52.832;4.758;2023-03-04T16:37:50;8.30;99.90
11615;DHT22;5863;52.832;4.758;2023-03-04T16:40:19;8.20;99.90